sensor_id;sensor_type;location;lat;lon;timestamp;pressure;altitude;pressure_sealevel;temperature;humidity
36304;BME280;22335;49.800;8.596;2022-12-18T00:02:03;101891.16;;;-0.39;47.16
36304;BME280;22335;49.800;8.596;2022-12-18T00:08:49;101889.00;;;-0.44;47.33
36304;BME280;22335;49.800;8.596;2022-12-18T00:15:34;101871.88;;;-0.43;47.35
36304;BME280;22335;49.800;8.596;2022-12-18T00:22:22;101874.78;;;-0.53;47.30
36304;BME280;22335;49.800;8.596;2022-12-18T00:29:10;101899.25;;;-0.48;46.85
36304;BME280;22335;49.800;8.596;2022-12-18T00:36:00;101890.97;;;-0.69;46.75
36304;BME280;22335;49.800;8.596;2022-12-18T00:42:49;101861.41;;;-0.69;46.76
36304;BME280;22335;49.800;8.596;2022-12-18T00:49:40;101890.25;;;-0.55;46.63
36304;BME280;22335;49.800;8.596;2022-12-18T00:56:25;101879.38;;;-0.61;46.62
36304;BME280;22335;49.800;8.596;2022-12-18T01:03:14;101874.22;;;-0.71;46.52
36304;BME280;22335;49.800;8.596;2022-12-18T01:10:00;101896.00;;;-0.66;46.56
36304;BME280;22335;49.800;8.596;2022-12-18T01:16:45;101856.97;;;-0.85;46.35
36304;BME280;22335;49.800;8.596;2022-12-18T01:23:34;101863.84;;;-0.82;46.40
36304;BME280;22335;49.800;8.596;2022-12-18T01:30:20;101881.16;;;-0.85;46.21
36304;BME280;22335;49.800;8.596;2022-12-18T01:37:07;101901.59;;;-0.76;46.20
36304;BME280;22335;49.800;8.596;2022-12-18T01:43:57;101907.50;;;-0.80;46.14
36304;BME280;22335;49.800;8.596;2022-12-18T01:50:42;101899.13;;;-0.94;46.07
36304;BME280;22335;49.800;8.596;2022-12-18T01:57:29;101900.63;;;-0.91;46.29
36304;BME280;22335;49.800;8.596;2022-12-18T02:04:22;101905.81;;;-0.50;46.02
36304;BME280;22335;49.800;8.596;2022-12-18T02:11:15;101879.22;;;-1.07;46.28
36304;BME280;22335;49.800;8.596;2022-12-18T02:18:07;101902.38;;;-1.06;46.19
36304;BME280;22335;49.800;8.596;2022-12-18T02:25:09;101901.88;;;-1.10;46.19
36304;BME280;22335;49.800;8.596;2022-12-18T02:32:08;101871.31;;;-1.09;45.92
36304;BME280;22335;49.800;8.596;2022-12-18T02:38:58;101848.72;;;-1.23;45.81
36304;BME280;22335;49.800;8.596;2022-12-18T02:45:54;101829.13;;;-1.31;46.00
36304;BME280;22335;49.800;8.596;2022-12-18T02:52:55;101849.41;;;-1.21;45.80
36304;BME280;22335;49.800;8.596;2022-12-18T02:59:56;101860.31;;;-1.30;45.61
36304;BME280;22335;49.800;8.596;2022-12-18T03:06:48;101858.34;;;-1.53;45.55
36304;BME280;22335;49.800;8.596;2022-12-18T03:13:40;101868.63;;;-1.73;45.23
36304;BME280;22335;49.800;8.596;2022-12-18T03:20:31;101883.69;;;-1.80;45.12
36304;BME280;22335;49.800;8.596;2022-12-18T03:27:20;101886.88;;;-1.93;45.14
36304;BME280;22335;49.800;8.596;2022-12-18T03:34:15;101881.53;;;-2.01;45.26
36304;BME280;22335;49.800;8.596;2022-12-18T03:41:10;101858.91;;;-2.06;45.25
36304;BME280;22335;49.800;8.596;2022-12-18T04:01:52;101835.09;;;-2.01;45.40
36304;BME280;22335;49.800;8.596;2022-12-18T04:08:41;101845.47;;;-1.98;45.23
36304;BME280;22335;49.800;8.596;2022-12-18T04:15:32;101870.63;;;-1.83;44.98
36304;BME280;22335;49.800;8.596;2022-12-18T04:22:26;101875.00;;;-1.90;44.99
36304;BME280;22335;49.800;8.596;2022-12-18T04:29:13;101878.84;;;-1.93;45.04
36304;BME280;22335;49.800;8.596;2022-12-18T04:36:00;101867.44;;;-2.03;45.08
36304;BME280;22335;49.800;8.596;2022-12-18T04:42:48;101840.63;;;-2.03;45.37
36304;BME280;22335;49.800;8.596;2022-12-18T04:49:34;101834.59;;;-1.97;45.39
36304;BME280;22335;49.800;8.596;2022-12-18T04:56:19;101849.84;;;-1.89;45.65
36304;BME280;22335;49.800;8.596;2022-12-18T05:03:07;101853.19;;;-1.87;45.67
36304;BME280;22335;49.800;8.596;2022-12-18T05:09:53;101882.22;;;-1.82;45.30
36304;BME280;22335;49.800;8.596;2022-12-18T05:16:38;101881.69;;;-1.94;45.33
36304;BME280;22335;49.800;8.596;2022-12-18T05:23:27;101899.47;;;-1.93;45.18
36304;BME280;22335;49.800;8.596;2022-12-18T05:30:13;101874.97;;;-2.31;45.39
36304;BME280;22335;49.800;8.596;2022-12-18T05:36:59;101874.47;;;-2.18;45.30
36304;BME280;22335;49.800;8.596;2022-12-18T05:43:47;101876.81;;;-2.23;45.36
36304;BME280;22335;49.800;8.596;2022-12-18T05:50:34;101850.88;;;-2.23;45.22
36304;BME280;22335;49.800;8.596;2022-12-18T05:57:20;101875.31;;;-2.01;45.34
36304;BME280;22335;49.800;8.596;2022-12-18T06:04:08;101867.13;;;-2.00;45.30
36304;BME280;22335;49.800;8.596;2022-12-18T06:10:54;101864.94;;;-2.13;45.35
36304;BME280;22335;49.800;8.596;2022-12-18T06:17:39;101877.34;;;-2.03;45.26
36304;BME280;22335;49.800;8.596;2022-12-18T06:24:28;101895.94;;;-2.02;45.17
36304;BME280;22335;49.800;8.596;2022-12-18T06:31:14;101920.06;;;-2.10;45.05
36304;BME280;22335;49.800;8.596;2022-12-18T06:38:01;101917.16;;;-2.33;45.29
36304;BME280;22335;49.800;8.596;2022-12-18T06:44:49;101941.78;;;-2.29;45.55
36304;BME280;22335;49.800;8.596;2022-12-18T06:51:35;101933.03;;;-2.40;45.88
36304;BME280;22335;49.800;8.596;2022-12-18T06:58:21;101956.00;;;-2.37;45.83
36304;BME280;22335;49.800;8.596;2022-12-18T07:05:09;101965.84;;;-2.46;46.09
36304;BME280;22335;49.800;8.596;2022-12-18T07:11:54;101981.56;;;-2.51;46.39
36304;BME280;22335;49.800;8.596;2022-12-18T07:18:40;101945.91;;;-2.94;46.46
36304;BME280;22335;49.800;8.596;2022-12-18T07:25:28;101973.63;;;-2.69;46.80
36304;BME280;22335;49.800;8.596;2022-12-18T07:32:14;101964.59;;;-2.68;46.88
36304;BME280;22335;49.800;8.596;2022-12-18T07:38:59;101955.41;;;-2.65;46.70
36304;BME280;22335;49.800;8.596;2022-12-18T07:45:49;101971.66;;;-2.59;46.96
36304;BME280;22335;49.800;8.596;2022-12-18T07:52:34;101908.28;;;-2.84;46.92
36304;BME280;22335;49.800;8.596;2022-12-18T07:59:20;101968.84;;;-2.49;47.00
36304;BME280;22335;49.800;8.596;2022-12-18T08:06:09;101982.78;;;-2.37;47.14
36304;BME280;22335;49.800;8.596;2022-12-18T08:12:55;102004.28;;;-2.21;46.88
36304;BME280;22335;49.800;8.596;2022-12-18T08:19:45;101981.69;;;-2.18;47.01
36304;BME280;22335;49.800;8.596;2022-12-18T08:26:33;101975.47;;;-2.19;47.33
36304;BME280;22335;49.800;8.596;2022-12-18T08:33:18;101982.38;;;-2.16;47.21
36304;BME280;22335;49.800;8.596;2022-12-18T08:40:06;101998.63;;;-2.10;47.44
36304;BME280;22335;49.800;8.596;2022-12-18T08:46:55;101971.69;;;-2.00;47.57
36304;BME280;22335;49.800;8.596;2022-12-18T08:53:42;101970.19;;;-1.86;47.45
36304;BME280;22335;49.800;8.596;2022-12-18T09:00:27;101934.31;;;-1.93;47.54
36304;BME280;22335;49.800;8.596;2022-12-18T09:07:16;101930.81;;;-1.86;47.40
36304;BME280;22335;49.800;8.596;2022-12-18T09:14:02;101917.22;;;-1.68;47.54
36304;BME280;22335;49.800;8.596;2022-12-18T09:20:47;101939.84;;;-1.46;47.71
36304;BME280;22335;49.800;8.596;2022-12-18T09:27:37;101956.63;;;-1.35;47.91
36304;BME280;22335;49.800;8.596;2022-12-18T09:34:22;101934.47;;;-1.37;47.91
36304;BME280;22335;49.800;8.596;2022-12-18T09:41:19;101971.16;;;-0.89;48.10
36304;BME280;22335;49.800;8.596;2022-12-18T09:48:21;101952.06;;;-0.63;47.98
36304;BME280;22335;49.800;8.596;2022-12-18T09:55:13;101947.28;;;-0.44;47.84
36304;BME280;22335;49.800;8.596;2022-12-18T10:02:15;101948.84;;;-0.19;47.63
36304;BME280;22335;49.800;8.596;2022-12-18T10:09:12;101961.13;;;0.07;47.37
36304;BME280;22335;49.800;8.596;2022-12-18T10:16:11;101956.66;;;0.22;47.40
36304;BME280;22335;49.800;8.596;2022-12-18T10:23:04;101965.47;;;0.31;47.11
36304;BME280;22335;49.800;8.596;2022-12-18T10:29:58;101934.94;;;0.23;47.03
36304;BME280;22335;49.800;8.596;2022-12-18T10:36:43;101933.91;;;0.25;47.00
36304;BME280;22335;49.800;8.596;2022-12-18T10:43:30;101891.72;;;0.02;47.24
36304;BME280;22335;49.800;8.596;2022-12-18T10:50:27;101918.63;;;0.25;47.48
36304;BME280;22335;49.800;8.596;2022-12-18T10:57:36;101923.94;;;0.33;47.09
36304;BME280;22335;49.800;8.596;2022-12-18T11:04:24;101923.09;;;0.33;47.31
36304;BME280;22335;49.800;8.596;2022-12-18T11:11:21;101941.03;;;0.40;47.46
36304;BME280;22335;49.800;8.596;2022-12-18T11:18:16;101922.72;;;0.36;47.77
36304;BME280;22335;49.800;8.596;2022-12-18T11:25:05;101925.63;;;0.49;47.63
36304;BME280;22335;49.800;8.596;2022-12-18T11:32:34;101860.47;;;0.01;47.88
36304;BME280;22335;49.800;8.596;2022-12-18T11:39:27;101937.44;;;0.48;47.52
36304;BME280;22335;49.800;8.596;2022-12-18T11:46:23;101929.09;;;0.58;47.85
36304;BME280;22335;49.800;8.596;2022-12-18T11:53:16;101911.38;;;0.63;47.75
36304;BME280;22335;49.800;8.596;2022-12-18T12:00:09;101844.03;;;0.19;47.82
36304;BME280;22335;49.800;8.596;2022-12-18T12:07:04;101902.19;;;0.58;47.88
36304;BME280;22335;49.800;8.596;2022-12-18T12:14:13;101936.78;;;0.84;47.89
36304;BME280;22335;49.800;8.596;2022-12-18T12:21:15;101930.44;;;0.91;47.52
36304;BME280;22335;49.800;8.596;2022-12-18T12:28:15;101931.38;;;0.99;47.66
36304;BME280;22335;49.800;8.596;2022-12-18T12:35:18;101898.22;;;0.98;47.89
36304;BME280;22335;49.800;8.596;2022-12-18T12:42:14;101900.53;;;1.01;47.83
36304;BME280;22335;49.800;8.596;2022-12-18T12:49:18;101895.31;;;1.14;47.77
36304;BME280;22335;49.800;8.596;2022-12-18T12:56:15;101901.53;;;1.30;47.55
36304;BME280;22335;49.800;8.596;2022-12-18T13:03:08;101890.31;;;1.26;47.60
36304;BME280;22335;49.800;8.596;2022-12-18T13:10:22;101859.16;;;1.38;47.59
36304;BME280;22335;49.800;8.596;2022-12-18T13:17:27;101840.19;;;1.32;47.65
36304;BME280;22335;49.800;8.596;2022-12-18T13:24:15;101834.88;;;1.38;47.75
36304;BME280;22335;49.800;8.596;2022-12-18T13:31:08;101822.44;;;1.37;47.55
36304;BME280;22335;49.800;8.596;2022-12-18T13:37:56;101809.03;;;1.44;47.84
36304;BME280;22335;49.800;8.596;2022-12-18T13:44:43;101795.53;;;1.44;47.83
36304;BME280;22335;49.800;8.596;2022-12-18T13:51:31;101800.91;;;1.59;47.99
36304;BME280;22335;49.800;8.596;2022-12-18T13:58:20;101810.91;;;1.65;47.92
36304;BME280;22335;49.800;8.596;2022-12-18T14:05:22;101743.69;;;1.42;48.18
36304;BME280;22335;49.800;8.596;2022-12-18T14:12:14;101766.78;;;1.73;48.10
36304;BME280;22335;49.800;8.596;2022-12-18T14:19:17;101768.00;;;1.70;48.16
36304;BME280;22335;49.800;8.596;2022-12-18T14:26:20;101787.59;;;1.79;48.35
36304;BME280;22335;49.800;8.596;2022-12-18T14:33:13;101786.19;;;1.83;48.15
36304;BME280;22335;49.800;8.596;2022-12-18T14:40:05;101794.81;;;2.00;48.06
36304;BME280;22335;49.800;8.596;2022-12-18T14:46:56;101776.53;;;1.95;47.83
36304;BME280;22335;49.800;8.596;2022-12-18T14:53:45;101801.66;;;1.96;48.15
36304;BME280;22335;49.800;8.596;2022-12-18T15:00:41;101801.34;;;1.84;48.06
36304;BME280;22335;49.800;8.596;2022-12-18T15:07:39;101780.03;;;1.68;48.28
36304;BME280;22335;49.800;8.596;2022-12-18T15:14:39;101786.69;;;1.72;48.30
36304;BME280;22335;49.800;8.596;2022-12-18T15:21:27;101789.66;;;1.77;47.93
36304;BME280;22335;49.800;8.596;2022-12-18T15:28:19;101765.06;;;1.65;48.11
36304;BME280;22335;49.800;8.596;2022-12-18T15:35:14;101784.00;;;1.72;47.95
36304;BME280;22335;49.800;8.596;2022-12-18T15:42:07;101777.19;;;1.76;48.20
36304;BME280;22335;49.800;8.596;2022-12-18T15:49:05;101780.91;;;1.96;47.95
36304;BME280;22335;49.800;8.596;2022-12-18T15:55:52;101770.75;;;1.98;47.71
36304;BME280;22335;49.800;8.596;2022-12-18T16:02:53;101774.06;;;2.00;48.06
36304;BME280;22335;49.800;8.596;2022-12-18T16:09:39;101773.25;;;2.28;47.57
36304;BME280;22335;49.800;8.596;2022-12-18T16:16:25;101752.72;;;2.34;47.41
36304;BME280;22335;49.800;8.596;2022-12-18T16:23:14;101759.38;;;2.38;47.45
36304;BME280;22335;49.800;8.596;2022-12-18T16:29:59;101735.47;;;2.35;47.26
36304;BME280;22335;49.800;8.596;2022-12-18T16:36:45;101743.72;;;2.54;47.23
36304;BME280;22335;49.800;8.596;2022-12-18T16:43:33;101735.78;;;2.53;47.20
36304;BME280;22335;49.800;8.596;2022-12-18T16:50:20;101637.84;;;1.90;47.38
36304;BME280;22335;49.800;8.596;2022-12-18T16:57:06;101733.50;;;2.50;47.46
36304;BME280;22335;49.800;8.596;2022-12-18T17:03:57;101735.72;;;2.40;47.64
36304;BME280;22335;49.800;8.596;2022-12-18T17:10:43;101736.19;;;2.50;47.55
36304;BME280;22335;49.800;8.596;2022-12-18T17:17:29;101723.75;;;2.56;47.22
36304;BME280;22335;49.800;8.596;2022-12-18T17:24:17;101722.72;;;2.57;47.25
36304;BME280;22335;49.800;8.596;2022-12-18T17:31:10;101735.81;;;2.60;47.38
36304;BME280;22335;49.800;8.596;2022-12-18T17:37:56;101706.28;;;2.51;47.39
36304;BME280;22335;49.800;8.596;2022-12-18T17:44:48;101703.34;;;2.46;47.52
36304;BME280;22335;49.800;8.596;2022-12-18T17:51:34;101716.31;;;2.58;47.65
36304;BME280;22335;49.800;8.596;2022-12-18T17:58:20;101710.41;;;2.47;47.94
36304;BME280;22335;49.800;8.596;2022-12-18T18:05:08;101712.56;;;2.65;47.76
36304;BME280;22335;49.800;8.596;2022-12-18T18:11:58;101718.41;;;2.69;47.56
36304;BME280;22335;49.800;8.596;2022-12-18T18:18:57;101698.25;;;2.65;47.87
36304;BME280;22335;49.800;8.596;2022-12-18T18:25:46;101692.59;;;2.60;47.99
36304;BME280;22335;49.800;8.596;2022-12-18T18:32:35;101716.31;;;2.58;47.87
36304;BME280;22335;49.800;8.596;2022-12-18T18:39:22;101714.97;;;2.47;48.02
36304;BME280;22335;49.800;8.596;2022-12-18T18:46:12;101720.63;;;2.52;48.07
36304;BME280;22335;49.800;8.596;2022-12-18T18:52:58;101715.63;;;2.49;48.18
36304;BME280;22335;49.800;8.596;2022-12-18T18:59:45;101672.97;;;2.38;48.22
36304;BME280;22335;49.800;8.596;2022-12-18T19:06:33;101673.66;;;2.46;48.04
36304;BME280;22335;49.800;8.596;2022-12-18T19:13:20;101662.66;;;2.48;48.10
36304;BME280;22335;49.800;8.596;2022-12-18T19:20:08;101652.06;;;2.53;48.06
36304;BME280;22335;49.800;8.596;2022-12-18T19:26:56;101658.13;;;2.55;48.13
36304;BME280;22335;49.800;8.596;2022-12-18T19:33:44;101634.41;;;2.50;48.19
36304;BME280;22335;49.800;8.596;2022-12-18T19:40:30;101636.50;;;2.48;48.14
36304;BME280;22335;49.800;8.596;2022-12-18T19:47:18;101641.28;;;2.53;48.25
36304;BME280;22335;49.800;8.596;2022-12-18T19:54:03;101593.41;;;2.27;48.31
36304;BME280;22335;49.800;8.596;2022-12-18T20:00:55;101607.41;;;2.50;48.47
36304;BME280;22335;49.800;8.596;2022-12-18T20:07:43;101611.13;;;2.43;48.39
36304;BME280;22335;49.800;8.596;2022-12-18T20:14:28;101629.88;;;2.58;48.55
36304;BME280;22335;49.800;8.596;2022-12-18T20:21:14;101617.19;;;2.58;48.68
36304;BME280;22335;49.800;8.596;2022-12-18T20:28:02;101642.56;;;2.57;48.62
36304;BME280;22335;49.800;8.596;2022-12-18T20:34:48;101623.59;;;2.50;48.53
36304;BME280;22335;49.800;8.596;2022-12-18T20:41:34;101642.34;;;2.59;48.40
36304;BME280;22335;49.800;8.596;2022-12-18T20:48:22;101631.28;;;2.53;48.46
36304;BME280;22335;49.800;8.596;2022-12-18T20:55:08;101630.06;;;2.63;48.49
36304;BME280;22335;49.800;8.596;2022-12-18T21:01:54;101588.72;;;2.56;48.64
36304;BME280;22335;49.800;8.596;2022-12-18T21:08:42;101596.00;;;2.62;48.58
36304;BME280;22335;49.800;8.596;2022-12-18T21:15:28;101611.81;;;2.65;48.60
36304;BME280;22335;49.800;8.596;2022-12-18T21:22:13;101635.50;;;2.69;48.80
36304;BME280;22335;49.800;8.596;2022-12-18T21:29:04;101636.38;;;2.76;48.82
36304;BME280;22335;49.800;8.596;2022-12-18T21:35:51;101623.28;;;2.80;48.80
36304;BME280;22335;49.800;8.596;2022-12-18T21:42:36;101618.94;;;2.92;48.61
36304;BME280;22335;49.800;8.596;2022-12-18T21:49:37;101605.41;;;2.79;48.94
36304;BME280;22335;49.800;8.596;2022-12-18T21:56:24;101625.59;;;2.96;48.73
36304;BME280;22335;49.800;8.596;2022-12-18T22:03:27;101625.81;;;3.15;48.52
36304;BME280;22335;49.800;8.596;2022-12-18T22:10:16;101646.84;;;3.19;48.44
36304;BME280;22335;49.800;8.596;2022-12-18T22:17:01;101617.72;;;3.15;48.53
36304;BME280;22335;49.800;8.596;2022-12-18T22:23:51;101630.81;;;3.18;48.56
36304;BME280;22335;49.800;8.596;2022-12-18T22:30:40;101622.94;;;3.16;48.60
36304;BME280;22335;49.800;8.596;2022-12-18T22:37:25;101608.56;;;3.16;48.78
36304;BME280;22335;49.800;8.596;2022-12-18T22:44:11;101632.28;;;3.27;48.61
36304;BME280;22335;49.800;8.596;2022-12-18T22:51:01;101610.00;;;3.12;48.70
36304;BME280;22335;49.800;8.596;2022-12-18T22:57:46;101620.81;;;3.18;48.84
36304;BME280;22335;49.800;8.596;2022-12-18T23:04:35;101600.88;;;3.19;48.69
36304;BME280;22335;49.800;8.596;2022-12-18T23:11:24;101600.66;;;3.28;48.94
36304;BME280;22335;49.800;8.596;2022-12-18T23:18:10;101594.22;;;3.35;48.83
36304;BME280;22335;49.800;8.596;2022-12-18T23:24:55;101592.34;;;3.36;48.61
36304;BME280;22335;49.800;8.596;2022-12-18T23:31:45;101582.78;;;3.33;48.93
36304;BME280;22335;49.800;8.596;2022-12-18T23:38:31;101561.34;;;3.38;48.94
36304;BME280;22335;49.800;8.596;2022-12-18T23:45:17;101564.38;;;3.82;48.41
36304;BME280;22335;49.800;8.596;2022-12-18T23:52:06;101548.44;;;3.40;48.74
36304;BME280;22335;49.800;8.596;2022-12-18T23:58:51;101557.16;;;3.56;48.78
